Time;durP1;ratioP1;P1;durP2;ratioP2;P2;SDS_P1;SDS_P2;PMS_P1;PMS_P2;Temp;Humidity;BMP_temperature;BMP_pressure;BME280_temperature;BME280_humidity;BME280_pressure;Samples;Min_cycle;Max_cycle;Signal;HPM_P1;HPM_P2
2021/10/27 00:01:07;;;;;;;29.18;15.58;;;;;;;2.18;83.93;100240.89;1678459;85;20914;-64
2021/10/27 00:03:33;;;;;;;28.70;14.55;;;;;;;2.17;84.02;100245.20;1665807;85;21030;-63
2021/10/27 00:06:00;;;;;;;27.85;13.80;;;;;;;2.16;84.21;100247.62;1679194;84;20941;-63
2021/10/27 00:08:27;;;;;;;34.15;14.85;;;;;;;2.14;84.45;100245.15;1679154;84;21418;-64
2021/10/27 00:10:53;;;;;;;28.32;13.45;;;;;;;2.13;84.53;100250.28;1679116;85;20954;-65
2021/10/27 00:13:20;;;;;;;26.20;14.33;;;;;;;2.11;84.83;100246.99;1679142;85;20965;-65
2021/10/27 00:15:47;;;;;;;25.43;14.28;;;;;;;2.09;85.07;100248.30;1679132;85;20970;-63
2021/10/27 00:18:14;;;;;;;32.23;18.17;;;;;;;2.06;85.27;100240.66;1665004;85;21017;-64
2021/10/27 00:20:41;;;;;;;31.15;16.37;;;;;;;2.04;85.27;100231.42;1679109;85;21787;-63
2021/10/27 00:23:08;;;;;;;36.50;20.32;;;;;;;2.02;85.34;100225.96;1672060;85;20926;-63
2021/10/27 00:25:34;;;;;;;43.48;22.20;;;;;;;1.98;85.49;100224.27;1672074;85;21488;-63
2021/10/27 00:28:01;;;;;;;37.45;20.92;;;;;;;1.95;85.96;100226.92;1679153;85;20938;-63
2021/10/27 00:30:27;;;;;;;35.30;20.55;;;;;;;1.95;85.95;100232.88;1679173;85;20874;-64
2021/10/27 00:32:54;;;;;;;47.83;23.60;;;;;;;1.92;86.03;100236.06;1679349;85;21840;-64
2021/10/27 00:35:21;;;;;;;40.10;23.22;;;;;;;1.92;85.96;100233.36;1679064;85;20934;-64
2021/10/27 00:37:47;;;;;;;43.33;22.25;;;;;;;1.90;86.24;100233.60;1674856;85;20938;-64
2021/10/27 00:40:14;;;;;;;37.90;21.15;;;;;;;1.87;86.22;100234.08;1676274;85;21053;-64
2021/10/27 00:42:41;;;;;;;40.70;20.88;;;;;;;1.83;86.77;100228.86;1672306;85;21049;-64
2021/10/27 00:45:09;;;;;;;41.42;22.85;;;;;;;1.81;86.90;100226.92;1641157;86;21166;-64
2021/10/27 00:47:36;;;;;;;36.75;22.02;;;;;;;1.76;86.87;100224.13;1650763;87;20982;-64
2021/10/27 00:50:04;;;;;;;36.93;21.48;;;;;;;1.74;87.02;100215.42;1651096;87;21524;-63
2021/10/27 00:52:31;;;;;;;31.12;18.75;;;;;;;1.72;87.10;100222.17;1652414;85;21023;-63
2021/10/27 00:54:58;;;;;;;35.17;19.25;;;;;;;1.71;87.34;100217.82;1651994;85;20938;-63
2021/10/27 00:57:25;;;;;;;31.37;19.17;;;;;;;1.70;87.41;100218.88;1650802;85;21907;-64
2021/10/27 00:59:52;;;;;;;34.27;20.92;;;;;;;1.69;87.55;100224.83;1651005;86;21054;-63
2021/10/27 01:02:20;;;;;;;42.10;24.52;;;;;;;1.65;87.77;100223.13;1657910;86;21437;-63
2021/10/27 01:04:47;;;;;;;44.53;25.90;;;;;;;1.65;88.07;100223.66;1658392;86;21520;-63
2021/10/27 01:07:15;;;;;;;42.20;23.00;;;;;;;1.64;88.53;100214.72;1658618;86;20970;-63
2021/10/27 01:09:42;;;;;;;33.33;20.17;;;;;;;1.67;89.02;100219.36;1651951;86;21134;-63
2021/10/27 01:12:10;;;;;;;31.10;19.02;;;;;;;1.67;89.23;100213.42;1663168;86;20890;-63
2021/10/27 01:14:43;;;;;;;27.40;15.98;;;;;;;1.69;89.35;100210.47;1640429;86;20978;-63
2021/10/27 01:17:13;;;;;;;30.90;17.10;;;;;;;1.69;89.60;100214.00;1663335;85;20909;-63
2021/10/27 01:19:56;;;;;;;27.25;14.95;;;;;;;1.70;89.57;100215.64;1659989;86;20902;-63
2021/10/27 01:22:30;;;;;;;28.12;13.58;;;;;;;1.70;89.87;100214.82;1650282;87;21170;-64
2021/10/27 01:24:57;;;;;;;30.32;13.72;;;;;;;1.71;90.21;100211.88;1651691;86;20990;-64
2021/10/27 01:27:24;;;;;;;23.32;13.53;;;;;;;1.71;90.31;100209.17;1658991;85;21564;-65
2021/10/27 01:29:51;;;;;;;26.15;13.48;;;;;;;1.71;90.37;100211.05;1660469;86;21001;-64
2021/10/27 01:32:27;;;;;;;22.58;14.03;;;;;;;1.70;90.39;100205.34;1667757;84;21421;-64
2021/10/27 01:34:54;;;;;;;27.93;13.90;;;;;;;1.68;90.69;100205.59;1654592;86;21807;-64
2021/10/27 01:37:22;;;;;;;35.63;14.75;;;;;;;1.67;91.16;100203.95;1655900;85;20937;-63
2021/10/27 01:39:49;;;;;;;30.72;14.55;;;;;;;1.64;91.16;100196.31;1651090;87;20859;-63
2021/10/27 01:42:16;;;;;;;31.20;14.45;;;;;;;1.62;91.13;100197.90;1651076;87;21030;-62
2021/10/27 01:44:42;;;;;;;25.70;13.70;;;;;;;1.61;91.15;100200.32;1656647;85;20974;-63
2021/10/27 01:47:09;;;;;;;24.55;13.72;;;;;;;1.58;91.52;100198.62;1679767;84;21716;-63
2021/10/27 01:49:36;;;;;;;26.85;13.40;;;;;;;1.54;91.85;100198.28;1667226;85;20949;-63
2021/10/27 01:52:04;;;;;;;27.98;13.70;;;;;;;1.55;92.21;100193.69;1679504;85;20941;-63
2021/10/27 01:54:31;;;;;;;31.07;14.58;;;;;;;1.54;92.78;100200.16;1679305;85;20958;-63
2021/10/27 01:56:58;;;;;;;34.55;14.78;;;;;;;1.53;92.71;100184.99;1667355;85;20910;-63
2021/10/27 01:59:25;;;;;;;27.98;14.47;;;;;;;1.52;92.69;100186.05;1660044;85;21769;-64
2021/10/27 02:01:52;;;;;;;29.85;14.00;;;;;;;1.49;92.67;100188.71;1679410;84;20906;-63
2021/10/27 02:04:19;;;;;;;25.97;13.95;;;;;;;1.47;92.84;100190.02;1667363;85;20910;-63
2021/10/27 02:06:47;;;;;;;27.67;14.73;;;;;;;1.45;92.99;100194.31;1679476;85;20989;-63
2021/10/27 02:09:15;;;;;;;33.05;15.30;;;;;;;1.42;93.01;100191.27;1673346;85;20966;-63
2021/10/27 02:11:42;;;;;;;28.00;14.05;;;;;;;1.40;93.00;100186.63;1674282;85;21186;-63
2021/10/27 02:14:08;;;;;;;25.30;13.72;;;;;;;1.36;93.22;100188.98;1667446;85;21623;-63
2021/10/27 02:16:35;;;;;;;29.95;14.15;;;;;;;1.34;93.24;100187.05;1679400;85;20910;-63
2021/10/27 02:19:04;;;;;;;26.97;14.50;;;;;;;1.30;93.49;100186.70;1667375;85;20934;-63
2021/10/27 02:21:30;;;;;;;27.50;13.70;;;;;;;1.27;93.49;100182.30;1667314;85;20958;-63
2021/10/27 02:23:57;;;;;;;26.73;16.02;;;;;;;1.24;93.97;100178.20;1667478;85;21805;-63
2021/10/27 02:26:24;;;;;;;33.58;16.05;;;;;;;1.21;94.17;100178.67;1679406;85;20997;-63
2021/10/27 02:28:52;;;;;;;29.15;16.07;;;;;;;1.20;94.24;100175.67;1679583;85;21513;-63
2021/10/27 02:31:19;;;;;;;33.23;17.62;;;;;;;1.18;94.68;100179.15;1679461;85;20970;-63
2021/10/27 02:33:47;;;;;;;31.60;15.55;;;;;;;1.18;94.87;100180.50;1667404;85;21013;-63
2021/10/27 02:36:14;;;;;;;31.52;16.70;;;;;;;1.16;94.82;100178.56;1679424;85;21154;-63
2021/10/27 02:38:44;;;;;;;27.85;15.60;;;;;;;1.17;94.80;100177.50;1669574;85;20910;-63
2021/10/27 02:41:11;;;;;;;25.55;14.93;;;;;;;1.15;94.87;100180.19;1677791;85;20906;-63
2021/10/27 02:43:39;;;;;;;38.48;15.70;;;;;;;1.15;95.17;100181.54;1666637;85;20867;-63
2021/10/27 02:46:08;;;;;;;25.57;15.25;;;;;;;1.15;95.23;100182.36;1676391;85;20895;-64
2021/10/27 02:48:36;;;;;;;25.75;14.33;;;;;;;1.14;95.44;100184.77;1673862;85;21136;-64
2021/10/27 02:51:03;;;;;;;27.13;13.68;;;;;;;1.13;95.59;100181.78;1678512;85;21075;-64
2021/10/27 02:53:30;;;;;;;32.90;14.85;;;;;;;1.12;95.94;100177.42;1672960;85;20962;-64
2021/10/27 02:55:56;;;;;;;28.17;15.25;;;;;;;1.12;96.15;100176.61;1679530;85;20962;-63
2021/10/27 02:58:23;;;;;;;29.30;14.20;;;;;;;1.10;96.24;100177.38;1669475;85;21033;-63
2021/10/27 03:00:51;;;;;;;27.70;14.85;;;;;;;1.07;96.25;100171.91;1668081;85;21138;-63
2021/10/27 03:03:18;;;;;;;24.23;13.88;;;;;;;1.06;96.33;100164.04;1679129;85;20936;-62
2021/10/27 03:05:46;;;;;;;30.52;16.55;;;;;;;1.05;96.57;100161.05;1679177;84;20993;-62
2021/10/27 03:08:13;;;;;;;28.17;14.90;;;;;;;1.04;97.24;100172.92;1671995;85;20976;-62
2021/10/27 03:10:40;;;;;;;33.05;16.85;;;;;;;1.04;97.29;100163.45;1672460;85;20937;-63
2021/10/27 03:13:06;;;;;;;31.62;16.25;;;;;;;1.01;97.19;100166.10;1671751;85;21119;-63
2021/10/27 03:15:33;;;;;;;33.45;16.20;;;;;;;1.00;97.08;100169.86;1669028;85;21619;-65
2021/10/27 03:18:01;;;;;;;36.77;15.85;;;;;;;0.99;97.36;100164.17;1675825;84;20945;-63
2021/10/27 03:20:28;;;;;;;28.57;16.90;;;;;;;0.96;97.45;100158.70;1679195;85;20950;-63
2021/10/27 03:22:55;;;;;;;29.65;15.63;;;;;;;0.95;97.57;100156.23;1672175;84;21033;-64
2021/10/27 03:25:22;;;;;;;27.27;15.68;;;;;;;0.93;97.73;100159.71;1679269;85;21139;-64
2021/10/27 03:27:49;;;;;;;26.70;14.78;;;;;;;0.92;97.97;100156.19;1679378;85;20938;-64
2021/10/27 03:30:15;;;;;;;32.15;15.50;;;;;;;0.92;98.16;100160.77;1678617;85;21002;-64
2021/10/27 03:32:43;;;;;;;32.40;16.57;;;;;;;0.91;98.30;100161.83;1665755;85;20965;-64
2021/10/27 03:35:09;;;;;;;30.80;16.30;;;;;;;0.89;98.30;100162.06;1679195;85;21425;-65
2021/10/27 03:37:36;;;;;;;38.45;17.77;;;;;;;0.88;98.45;100156.89;1676431;85;21138;-65
2021/10/27 03:40:04;;;;;;;33.08;16.55;;;;;;;0.86;98.70;100153.61;1675060;85;21555;-64
2021/10/27 03:42:31;;;;;;;30.27;16.60;;;;;;;0.85;98.75;100151.97;1671954;85;21566;-65
2021/10/27 03:44:58;;;;;;;30.25;15.65;;;;;;;0.82;98.85;100154.61;1677471;85;20862;-71
2021/10/27 03:47:24;;;;;;;31.37;15.70;;;;;;;0.79;98.89;100152.37;1675183;85;21009;-67
2021/10/27 03:49:50;;;;;;;30.92;16.87;;;;;;;0.78;98.98;100151.27;1669133;85;22121;-66
2021/10/27 03:52:17;;;;;;;26.70;16.00;;;;;;;0.79;99.57;100153.73;1699046;83;21420;-66
2021/10/27 03:54:44;;;;;;;31.00;16.25;;;;;;;0.80;99.66;100152.67;1713190;83;20987;-67
2021/10/27 03:57:11;;;;;;;34.75;16.35;;;;;;;0.84;100.00;100154.38;1705314;82;21488;-66
2021/10/27 03:59:37;;;;;;;44.45;17.57;;;;;;;0.84;99.93;100158.42;1702950;84;20932;-66
2021/10/27 04:02:05;;;;;;;49.58;19.02;;;;;;;0.81;99.81;100151.61;1703229;83;21475;-66
2021/10/27 04:04:32;;;;;;;35.80;17.27;;;;;;;0.82;100.00;100155.14;1702842;84;21455;-65
2021/10/27 04:06:58;;;;;;;37.05;16.48;;;;;;;0.83;100.00;100154.08;1703032;83;20896;-64
2021/10/27 04:09:25;;;;;;;30.10;15.08;;;;;;;0.80;100.00;100155.37;1702915;84;20968;-65
2021/10/27 04:11:52;;;;;;;28.98;16.02;;;;;;;0.77;100.00;100158.55;1703143;84;20885;-65
2021/10/27 04:14:18;;;;;;;29.57;15.85;;;;;;;0.74;100.00;100145.52;1703132;84;21812;-65
2021/10/27 04:16:45;;;;;;;29.40;15.88;;;;;;;0.73;100.00;100141.16;1702967;84;20984;-66
2021/10/27 04:19:11;;;;;;;33.33;14.70;;;;;;;0.70;100.00;100141.64;1702942;84;21003;-66
2021/10/27 04:21:38;;;;;;;25.55;15.83;;;;;;;0.69;100.00;100141.34;1700288;84;20957;-67
2021/10/27 04:24:05;;;;;;;32.20;16.73;;;;;;;0.71;100.00;100141.93;1669874;85;21017;-70
2021/10/27 04:26:32;;;;;;;29.40;16.10;;;;;;;0.72;100.00;100138.70;1675288;85;21092;-71
2021/10/27 04:28:59;;;;;;;33.28;16.85;;;;;;;0.72;100.00;100145.45;1679193;85;20906;-68
2021/10/27 04:31:26;;;;;;;28.23;15.90;;;;;;;0.70;100.00;100141.64;1668090;85;20950;-69
2021/10/27 04:33:53;;;;;;;28.55;15.48;;;;;;;0.70;100.00;100133.53;1666455;85;20997;-69
2021/10/27 04:36:20;;;;;;;32.90;16.45;;;;;;;0.70;100.00;100130.83;1679131;85;20953;-68
2021/10/27 04:38:46;;;;;;;25.57;15.72;;;;;;;0.71;100.00;100141.93;1678950;85;21961;-69
2021/10/27 04:41:14;;;;;;;23.73;15.32;;;;;;;0.72;100.00;100145.45;1665780;85;20977;-69
2021/10/27 04:43:41;;;;;;;26.52;14.70;;;;;;;0.71;100.00;100155.44;1676883;84;21020;-68
2021/10/27 04:46:08;;;;;;;29.05;13.90;;;;;;;0.71;100.00;100151.92;1682444;85;21448;-68
2021/10/27 04:48:35;;;;;;;29.65;14.18;;;;;;;0.69;100.00;100160.79;1659256;85;20977;-67
2021/10/27 04:51:01;;;;;;;28.00;15.00;;;;;;;0.69;100.00;100163.49;1653236;85;21500;-67
2021/10/27 04:53:28;;;;;;;30.37;15.53;;;;;;;0.65;100.00;100154.50;1656140;85;20969;-69
2021/10/27 04:55:55;;;;;;;32.70;16.32;;;;;;;0.63;100.00;100157.15;1658150;85;21013;-69
2021/10/27 04:58:21;;;;;;;27.02;14.90;;;;;;;0.61;100.00;100159.27;1665640;85;21480;-69
2021/10/27 05:00:49;;;;;;;26.37;14.05;;;;;;;0.59;100.00;100160.85;1662313;85;21020;-72
2021/10/27 05:03:15;;;;;;;24.40;14.33;;;;;;;0.57;100.00;100157.59;1661465;85;21967;-71
2021/10/27 05:05:53;;;;;;;23.35;13.18;;;;;;;0.57;100.00;100159.47;1663578;85;21563;-64
2021/10/27 05:08:17;;;;;;;21.95;13.93;;;;;;;0.57;100.00;100158.94;1660149;85;20965;-64
2021/10/27 05:10:44;;;;;;;25.70;15.08;;;;;;;0.58;100.00;100167.84;1647892;85;21563;-66
2021/10/27 05:13:11;;;;;;;25.02;13.03;;;;;;;0.58;100.00;100156.50;1663860;85;20877;-66
2021/10/27 05:15:38;;;;;;;27.20;14.40;;;;;;;0.58;100.00;100161.91;1660889;85;21152;-64
2021/10/27 05:18:05;;;;;;;25.80;14.85;;;;;;;0.60;100.00;100162.50;1656270;85;21097;-65
2021/10/27 05:20:32;;;;;;;24.27;13.30;;;;;;;0.64;100.00;100164.20;1659346;85;21436;-63
2021/10/27 05:22:59;;;;;;;29.60;12.95;;;;;;;0.66;100.00;100166.14;1662543;85;21044;-64
2021/10/27 05:25:26;;;;;;;97.80;38.48;;;;;;;0.71;100.00;100175.71;1669200;85;21028;-63
2021/10/27 05:27:54;;;;;;;122.90;45.80;;;;;;;0.76;100.00;100180.41;1671135;84;21009;-65
2021/10/27 05:30:22;;;;;;;163.43;59.58;;;;;;;0.81;100.00;100181.88;1662472;85;21055;-64
2021/10/27 05:32:48;;;;;;;82.72;34.00;;;;;;;0.85;100.00;100184.40;1665991;85;21464;-65
2021/10/27 05:35:15;;;;;;;34.38;16.67;;;;;;;0.90;100.00;100193.97;1667642;84;21025;-64
2021/10/27 05:37:42;;;;;;;37.25;17.95;;;;;;;0.95;100.00;100185.45;1660729;84;21004;-64
2021/10/27 05:40:11;;;;;;;38.05;19.05;;;;;;;1.01;100.00;100192.31;1674642;85;21168;-66
2021/10/27 05:42:40;;;;;;;36.90;17.10;;;;;;;1.06;100.00;100181.09;1673304;85;21004;-64
2021/10/27 05:45:09;;;;;;;33.20;15.90;;;;;;;1.12;100.00;100186.89;1677081;84;21013;-64
2021/10/27 05:47:39;;;;;;;27.40;14.90;;;;;;;1.19;100.00;100184.85;1678739;85;21516;-67
2021/10/27 05:55:33;;;;;;;23.95;12.95;;;;;;;1.41;100.00;100175.56;1678783;84;21555;-66
2021/10/27 05:57:57;;;;;;;24.02;13.25;;;;;;;1.49;100.00;100182.48;1678557;84;21500;-63
2021/10/27 06:00:24;;;;;;;23.42;13.88;;;;;;;1.56;100.00;100195.34;1679037;85;21081;-66
2021/10/27 06:02:50;;;;;;;21.90;13.40;;;;;;;1.62;100.00;100195.73;1678539;85;21044;-64
2021/10/27 06:05:17;;;;;;;21.75;13.22;;;;;;;1.70;100.00;100187.75;1678104;85;21088;-64
2021/10/27 06:07:44;;;;;;;22.62;12.63;;;;;;;1.75;100.00;100194.59;1678497;84;21012;-64
2021/10/27 06:10:13;;;;;;;23.22;13.08;;;;;;;1.82;100.00;100189.84;1678828;84;21005;-64
2021/10/27 06:12:39;;;;;;;23.52;12.45;;;;;;;1.88;100.00;100199.18;1678663;84;21100;-66
2021/10/27 06:15:07;;;;;;;18.02;11.85;;;;;;;1.96;100.00;100187.95;1678937;85;21025;-63
2021/10/27 06:17:37;;;;;;;20.17;11.22;;;;;;;2.04;100.00;100196.22;1678682;85;21037;-63
2021/10/27 06:20:05;;;;;;;20.25;12.63;;;;;;;2.16;100.00;100197.50;1678532;84;20997;-63
2021/10/27 06:22:33;;;;;;;17.70;11.48;;;;;;;2.44;100.00;100215.03;1673630;84;21037;-63
2021/10/27 06:25:00;;;;;;;21.20;12.50;;;;;;;2.86;100.00;100217.31;1678511;85;21006;-63
2021/10/27 06:27:27;;;;;;;20.92;11.65;;;;;;;3.12;100.00;100223.36;1679469;84;20993;-63
2021/10/27 06:30:02;;;;;;;19.67;11.63;;;;;;;3.24;100.00;100216.47;1670284;84;21152;-63
2021/10/27 06:35:37;;;;;;;18.00;10.40;;;;;;;3.82;100.00;100221.77;1654948;85;20979;-64
2021/10/27 06:37:47;;;;;;;20.85;10.10;;;;;;;4.39;99.15;100219.87;1642302;85;20965;-65
2021/10/27 06:48:19;;;;;;;16.57;10.32;;;;;;;6.25;88.99;100207.42;1676312;85;21001;-68
2021/10/27 06:50:46;;;;;;;17.25;9.58;;;;;;;6.69;85.42;100207.69;1676182;85;20954;-68
2021/10/27 06:53:13;;;;;;;17.85;10.38;;;;;;;7.02;83.19;100194.52;1668413;85;21037;-69
2021/10/27 06:55:40;;;;;;;24.65;9.98;;;;;;;7.19;81.13;100178.09;1679185;85;21972;-68
2021/10/27 06:58:09;;;;;;;23.32;9.83;;;;;;;7.35;81.00;100170.66;1673516;85;21489;-69
2021/10/27 07:00:46;;;;;;;12.43;8.38;;;;;;;7.55;79.04;100169.19;1657625;85;21028;-68
2021/10/27 07:16:59;;;;;;;17.15;9.33;;;;;;;8.53;73.27;100169.64;1679381;85;21412;-83
2021/10/27 07:19:25;;;;;;;15.58;7.22;;;;;;;8.78;72.97;100169.11;1672797;85;21052;-74
2021/10/27 07:21:53;;;;;;;13.40;9.40;;;;;;;9.11;71.28;100179.18;1672130;85;21204;-70
2021/10/27 07:24:20;;;;;;;14.93;8.48;;;;;;;9.30;69.11;100180.59;1679142;84;20965;-71
2021/10/27 07:26:47;;;;;;;15.63;8.58;;;;;;;9.36;68.59;100175.31;1679522;85;20913;-68
2021/10/27 07:29:18;;;;;;;17.07;8.30;;;;;;;9.50;68.01;100179.53;1672231;85;21028;-69
2021/10/27 07:31:43;;;;;;;21.10;9.35;;;;;;;9.62;66.54;100178.55;1665293;85;20949;-69
2021/10/27 07:34:12;;;;;;;15.03;9.18;;;;;;;9.68;65.39;100171.08;1654524;85;22155;-69
2021/10/27 07:39:50;;;;;;;13.45;8.80;;;;;;;9.76;65.59;100169.87;1672189;85;20981;-69
2021/10/27 07:41:53;;;;;;;21.73;9.18;;;;;;;10.08;63.96;100167.73;1669510;85;21005;-72
2021/10/27 07:44:21;;;;;;;64.85;31.12;;;;;;;10.23;62.37;100161.23;1648735;86;21464;-74
2021/10/27 07:46:48;;;;;;;39.53;17.27;;;;;;;10.34;62.53;100163.27;1672180;85;21513;-71
2021/10/27 07:49:14;;;;;;;231.80;91.97;;;;;;;10.49;62.28;100156.94;1674863;85;20985;-70
2021/10/27 07:51:41;;;;;;;84.17;38.95;;;;;;;10.82;62.46;100161.05;1668278;85;20985;-69
2021/10/27 07:54:08;;;;;;;37.10;21.40;;;;;;;11.30;60.81;100150.48;1679090;85;20982;-73
2021/10/27 07:56:34;;;;;;;22.52;12.50;;;;;;;11.67;58.57;100155.47;1678858;85;21556;-82
2021/10/27 07:59:02;;;;;;;20.55;10.98;;;;;;;11.88;58.04;100158.06;1679113;84;21500;-73
2021/10/27 08:01:30;;;;;;;23.52;10.65;;;;;;;12.11;56.54;100163.05;1666207;85;20939;-75
2021/10/27 08:03:58;;;;;;;19.48;11.10;;;;;;;12.33;55.43;100167.73;1669519;85;21527;-76
2021/10/27 08:06:25;;;;;;;22.35;13.13;;;;;;;12.37;53.85;100164.04;1679190;85;21040;-77
2021/10/27 08:08:52;;;;;;;90.62;48.25;;;;;;;12.36;54.63;100158.84;1678850;84;20917;-76
2021/10/27 08:11:18;;;;;;;21.95;13.25;;;;;;;12.44;53.87;100158.91;1675556;85;21102;-80
2021/10/27 08:13:44;;;;;;;30.85;16.20;;;;;;;12.34;53.47;100155.03;1669078;85;20989;-74
2021/10/27 08:16:11;;;;;;;37.13;21.75;;;;;;;12.26;53.82;100155.77;1673071;85;20922;-76
2021/10/27 08:18:38;;;;;;;29.40;13.55;;;;;;;12.32;53.69;100164.16;1657994;85;20902;-73
2021/10/27 08:21:06;;;;;;;37.28;17.70;;;;;;;12.30;54.33;100171.92;1676146;85;20904;-75
2021/10/27 08:23:35;;;;;;;64.30;34.10;;;;;;;12.05;53.96;100168.41;1678972;84;21523;-73
2021/10/27 08:26:06;;;;;;;31.75;15.93;;;;;;;11.56;55.02;100161.75;1679792;84;20939;-71
2021/10/27 08:28:37;;;;;;;26.02;13.18;;;;;;;11.13;56.26;100163.45;1679235;85;20941;-70
2021/10/27 08:31:08;;;;;;;28.00;15.33;;;;;;;10.79;57.55;100167.14;1677952;85;21452;-73
2021/10/27 08:36:00;;;;;;;19.75;11.55;;;;;;;10.40;58.77;100172.46;1679094;84;21800;-73
2021/10/27 08:38:27;;;;;;;30.52;13.38;;;;;;;10.20;59.11;100166.77;1672191;85;20914;-68
2021/10/27 08:40:55;;;;;;;27.02;14.03;;;;;;;9.99;59.70;100165.96;1664828;85;20953;-67
2021/10/27 08:43:23;;;;;;;26.20;12.15;;;;;;;10.05;60.91;100159.29;1665131;85;20966;-67
2021/10/27 08:45:50;;;;;;;21.27;12.50;;;;;;;10.64;59.52;100153.13;1678441;84;20981;-68
2021/10/27 08:48:17;;;;;;;25.35;11.15;;;;;;;11.37;58.56;100157.77;1679231;84;21139;-68
2021/10/27 08:50:46;;;;;;;22.55;11.35;;;;;;;12.01;55.93;100162.72;1673577;85;20969;-69
2021/10/27 08:53:15;;;;;;;20.32;10.32;;;;;;;12.22;54.82;100170.72;1669622;84;21041;-70
2021/10/27 08:55:47;;;;;;;21.00;11.75;;;;;;;12.14;54.16;100164.58;1674031;85;20988;-73
2021/10/27 08:58:19;;;;;;;21.27;12.05;;;;;;;11.95;54.87;100160.39;1672043;85;21000;-76
2021/10/27 09:00:52;;;;;;;23.80;11.50;;;;;;;11.70;54.72;100164.48;1678870;85;21541;-76
2021/10/27 09:03:21;;;;;;;25.88;13.13;;;;;;;11.36;55.04;100174.56;1678448;85;20989;-77
2021/10/27 09:08:54;;;;;;;21.93;13.00;;;;;;;10.60;57.13;100168.56;1664171;85;20958;-78
2021/10/27 09:34:25;;;;;;;34.08;16.55;;;;;;;9.56;62.46;100155.87;1679100;85;20946;-69
2021/10/27 09:39:49;;;;;;;40.45;17.90;;;;;;;9.59;62.56;100152.55;1676781;85;20969;-67
2021/10/27 10:06:44;;;;;;;30.70;15.13;;;;;;;10.36;58.88;100134.41;1677858;85;20934;-73
2021/10/27 10:09:12;;;;;;;36.25;16.97;;;;;;;10.46;58.26;100135.58;1678691;85;21155;-72
2021/10/27 10:11:40;;;;;;;36.48;14.95;;;;;;;10.54;58.24;100134.08;1679258;85;21497;-70
2021/10/27 10:14:12;;;;;;;29.32;13.18;;;;;;;10.62;58.36;100136.69;1679434;85;20898;-70
2021/10/27 10:16:48;;;;;;;24.27;12.55;;;;;;;10.68;57.93;100131.37;1665157;85;21467;-71
2021/10/27 10:19:23;;;;;;;27.45;13.75;;;;;;;10.72;57.48;100126.34;1679617;85;20985;-75
2021/10/27 10:21:55;;;;;;;32.73;14.95;;;;;;;10.77;57.76;100130.38;1659822;85;21494;-75
2021/10/27 10:24:36;;;;;;;22.70;12.75;;;;;;;10.88;57.27;100131.81;1666194;85;21444;-70
2021/10/27 10:27:13;;;;;;;25.68;13.45;;;;;;;10.99;57.40;100136.53;1684173;84;21108;-84
2021/10/27 10:29:45;;;;;;;29.80;13.58;;;;;;;11.09;56.58;100140.45;1684067;85;21444;-81
2021/10/27 10:32:25;;;;;;;32.70;14.10;;;;;;;11.12;56.57;100132.98;1687028;83;21091;-81
2021/10/27 10:34:55;;;;;;;28.15;14.60;;;;;;;11.17;56.12;100139.75;1664229;85;21150;-78
2021/10/27 10:37:37;;;;;;;26.33;15.27;;;;;;;11.17;55.77;100142.49;1679845;85;21354;-78
2021/10/27 10:40:47;;;;;;;32.28;14.90;;;;;;;11.18;56.11;100138.63;1679417;85;21004;-78
2021/10/27 10:45:58;;;;;;;39.30;17.48;;;;;;;11.25;56.33;100143.16;1678955;85;20997;-79
2021/10/27 10:57:27;;;;;;;28.25;13.95;;;;;;;12.63;52.33;100135.30;1667264;86;20953;-74
2021/10/27 11:00:11;;;;;;;37.48;15.63;;;;;;;12.52;52.35;100131.19;1641858;85;21009;-72
2021/10/27 11:38:53;;;;;;;39.75;21.42;;;;;;;10.86;57.35;100139.55;1640652;86;21601;-80
2021/10/27 11:41:36;;;;;;;38.10;20.88;;;;;;;10.87;57.41;100134.86;1648124;85;20914;-80
2021/10/27 11:44:14;;;;;;;34.85;18.95;;;;;;;10.86;57.42;100131.86;1651949;85;21776;-79
2021/10/27 11:46:55;;;;;;;56.37;25.97;;;;;;;10.81;57.56;100137.45;1667876;84;20946;-80
2021/10/27 11:49:16;;;;;;;54.27;26.77;;;;;;;10.75;58.17;100135.91;1678250;84;21279;-79
2021/10/27 11:51:55;;;;;;;52.93;23.77;;;;;;;10.71;58.58;100137.62;1657563;85;21820;-79
2021/10/27 11:54:25;;;;;;;52.35;23.98;;;;;;;10.68;58.74;100140.98;1664257;84;20902;-85
2021/10/27 11:56:50;;;;;;;38.35;20.88;;;;;;;10.66;58.97;100140.47;1670846;85;21181;-84
2021/10/27 11:59:17;;;;;;;37.45;19.23;;;;;;;10.68;59.47;100137.67;1666934;85;21515;-87
2021/10/27 12:01:53;;;;;;;39.53;20.05;;;;;;;10.75;58.83;100133.98;1659646;84;21308;-85
2021/10/27 12:04:20;;;;;;;42.43;20.35;;;;;;;10.86;58.55;100131.30;1667133;85;20941;-78
2021/10/27 12:07:00;;;;;;;45.00;22.40;;;;;;;11.01;58.39;100134.84;1679103;84;20906;-81
2021/10/27 12:12:14;;;;;;;50.08;20.12;;;;;;;11.45;58.27;100138.37;1666583;84;21016;-76
2021/10/27 12:20:40;;;;;;;32.15;17.92;;;;;;;12.28;57.39;100143.89;1664827;85;21585;-86
2021/10/27 12:23:10;;;;;;;34.40;16.80;;;;;;;12.90;57.32;100138.42;1666403;85;21163;-82
2021/10/27 12:25:36;;;;;;;36.10;17.45;;;;;;;13.72;54.97;100134.98;1647774;85;21108;-76
2021/10/27 12:28:05;;;;;;;33.23;17.27;;;;;;;14.36;52.09;100126.86;1655297;85;21056;-78
2021/10/27 12:30:45;;;;;;;32.38;17.00;;;;;;;14.76;50.88;100128.00;1657222;84;21100;-79
2021/10/27 12:33:10;;;;;;;31.02;16.45;;;;;;;15.18;49.75;100128.97;1632845;87;20882;-77
2021/10/27 12:35:37;;;;;;;33.42;19.80;;;;;;;15.65;48.54;100131.09;1640452;87;21450;-74
2021/10/27 12:40:42;;;;;;;28.83;14.73;;;;;;;15.89;48.34;100135.16;1640063;85;21494;-74
2021/10/27 12:43:19;;;;;;;33.60;15.90;;;;;;;15.51;48.86;100132.71;1651648;85;20921;-74
2021/10/27 12:45:50;;;;;;;32.65;15.70;;;;;;;15.22;49.52;100133.27;1651387;86;20965;-75
2021/10/27 12:48:25;;;;;;;30.50;16.60;;;;;;;15.19;50.10;100134.74;1633152;86;21161;-79
2021/10/27 12:51:06;;;;;;;29.32;16.55;;;;;;;15.38;49.06;100137.09;1653388;86;20958;-71
2021/10/27 12:53:43;;;;;;;34.25;16.85;;;;;;;15.45;49.46;100141.53;1651709;87;20948;-69
2021/10/27 12:56:29;;;;;;;40.00;19.25;;;;;;;15.65;48.06;100137.19;1651772;86;21473;-68
2021/10/27 12:59:02;;;;;;;32.35;17.23;;;;;;;15.74;48.26;100143.48;1651611;86;21033;-67
2021/10/27 13:06:58;;;;;;;48.02;22.98;;;;;;;15.81;47.69;100138.23;1651896;87;20961;-68
2021/10/27 13:20:09;;;;;;;26.73;16.05;;;;;;;14.96;49.70;100159.09;1679341;85;20981;-69
2021/10/27 13:30:46;;;;;;;39.38;17.25;;;;;;;14.62;51.08;100161.92;1679423;85;20934;-69
2021/10/27 13:33:04;;;;;;;32.17;17.07;;;;;;;14.54;51.19;100168.52;1679808;83;21430;-69
2021/10/27 13:35:34;;;;;;;34.78;18.90;;;;;;;14.59;51.37;100172.25;1679453;85;21473;-69
2021/10/27 13:38:01;;;;;;;33.50;17.67;;;;;;;14.60;50.77;100171.11;1679654;85;20902;-74
2021/10/27 13:40:29;;;;;;;37.93;18.82;;;;;;;14.30;51.19;100182.58;1678496;85;21153;-69
2021/10/27 13:43:10;;;;;;;42.25;20.77;;;;;;;13.81;52.51;100181.91;1679349;85;20942;-69
2021/10/27 13:45:39;;;;;;;36.63;19.12;;;;;;;13.27;53.67;100185.98;1679075;85;20910;-69
2021/10/27 13:48:17;;;;;;;40.20;18.32;;;;;;;12.79;55.55;100192.98;1662234;85;21084;-71
2021/10/27 14:07:02;;;;;;;43.83;22.20;;;;;;;11.18;63.51;100216.13;1629410;88;21072;-72
2021/10/27 14:09:37;;;;;;;68.83;35.52;;;;;;;11.03;63.61;100215.84;1628660;87;21052;-75
2021/10/27 14:12:20;;;;;;;300.05;132.43;;;;;;;10.92;64.54;100225.41;1637354;86;20962;-71
2021/10/27 14:23:06;;;;;;;44.93;21.97;;;;;;;10.52;66.82;100220.85;1642786;86;21513;-69
2021/10/27 14:39:11;;;;;;;52.65;24.35;;;;;;;10.03;69.06;100227.34;1644898;86;21510;-69
2021/10/27 15:20:13;;;;;;;69.32;29.72;;;;;;;9.67;71.57;100264.84;1652639;86;20886;-78
2021/10/27 15:30:28;;;;;;;97.10;44.18;;;;;;;9.56;71.77;100272.92;1633175;86;21018;-75
2021/10/27 15:35:34;;;;;;;77.75;34.88;;;;;;;9.54;72.04;100274.58;1626256;88;21457;-75
2021/10/27 15:41:14;;;;;;;62.55;27.48;;;;;;;9.51;72.47;100281.20;1626648;86;21128;-73